sensor_id;sensor_type;location;lat;lon;timestamp;pressure;altitude;pressure_sealevel;temperature;humidity
21821;BME280;11073;48.586;12.066;2023-05-23T00:01:28;96042.66;;;21.06;52.43
21821;BME280;11073;48.586;12.066;2023-05-23T00:04:18;96045.09;;;21.08;52.35
21821;BME280;11073;48.586;12.066;2023-05-23T00:07:07;96055.09;;;21.04;52.32
21821;BME280;11073;48.586;12.066;2023-05-23T00:09:58;96058.16;;;21.02;52.19
21821;BME280;11073;48.586;12.066;2023-05-23T00:12:47;96057.00;;;20.95;52.05
21821;BME280;11073;48.586;12.066;2023-05-23T00:15:37;96059.38;;;20.87;52.17
21821;BME280;11073;48.586;12.066;2023-05-23T00:18:28;96054.19;;;20.86;52.59
21821;BME280;11073;48.586;12.066;2023-05-23T00:21:18;96055.28;;;20.85;52.20
21821;BME280;11073;48.586;12.066;2023-05-23T00:24:08;96056.94;;;20.86;52.62
21821;BME280;11073;48.586;12.066;2023-05-23T00:26:59;96050.47;;;20.90;52.61
21821;BME280;11073;48.586;12.066;2023-05-23T00:29:48;96044.97;;;20.90;52.27
21821;BME280;11073;48.586;12.066;2023-05-23T00:32:37;96051.63;;;20.89;52.27
21821;BME280;11073;48.586;12.066;2023-05-23T00:35:27;96064.44;;;20.94;52.65
21821;BME280;11073;48.586;12.066;2023-05-23T00:38:17;96050.75;;;20.80;52.32
21821;BME280;11073;48.586;12.066;2023-05-23T00:41:06;96052.81;;;20.75;52.51
21821;BME280;11073;48.586;12.066;2023-05-23T00:43:56;96048.75;;;20.72;53.05
21821;BME280;11073;48.586;12.066;2023-05-23T00:46:49;96044.22;;;20.76;52.68
21821;BME280;11073;48.586;12.066;2023-05-23T00:49:38;96045.03;;;20.77;52.82
21821;BME280;11073;48.586;12.066;2023-05-23T00:52:28;96048.44;;;20.74;53.36
21821;BME280;11073;48.586;12.066;2023-05-23T00:55:17;96053.63;;;20.75;53.31
21821;BME280;11073;48.586;12.066;2023-05-23T00:58:07;96051.78;;;20.71;53.10
21821;BME280;11073;48.586;12.066;2023-05-23T01:00:58;96057.56;;;20.60;53.39
21821;BME280;11073;48.586;12.066;2023-05-23T01:03:47;96058.19;;;20.57;53.27
21821;BME280;11073;48.586;12.066;2023-05-23T01:06:37;96063.00;;;20.52;53.34
21821;BME280;11073;48.586;12.066;2023-05-23T01:09:27;96060.25;;;20.52;53.62
21821;BME280;11073;48.586;12.066;2023-05-23T01:12:20;96072.53;;;20.54;53.44
21821;BME280;11073;48.586;12.066;2023-05-23T01:15:15;96080.91;;;20.49;53.79
21821;BME280;11073;48.586;12.066;2023-05-23T01:18:09;96089.56;;;20.43;53.94
21821;BME280;11073;48.586;12.066;2023-05-23T01:21:06;96082.41;;;20.42;54.13
21821;BME280;11073;48.586;12.066;2023-05-23T01:24:21;96085.59;;;20.49;53.69
21821;BME280;11073;48.586;12.066;2023-05-23T01:27:22;96073.06;;;20.43;53.67
21821;BME280;11073;48.586;12.066;2023-05-23T01:30:20;96085.47;;;20.54;53.54
21821;BME280;11073;48.586;12.066;2023-05-23T01:33:12;96086.28;;;20.54;53.50
21821;BME280;11073;48.586;12.066;2023-05-23T01:36:02;96091.78;;;20.54;53.66
21821;BME280;11073;48.586;12.066;2023-05-23T01:38:51;96086.41;;;20.49;53.52
21821;BME280;11073;48.586;12.066;2023-05-23T01:41:41;96090.00;;;20.50;53.50
21821;BME280;11073;48.586;12.066;2023-05-23T01:44:30;96087.25;;;20.50;53.96
21821;BME280;11073;48.586;12.066;2023-05-23T01:47:21;96085.59;;;20.49;53.64
21821;BME280;11073;48.586;12.066;2023-05-23T01:50:11;96091.09;;;20.49;53.77
21821;BME280;11073;48.586;12.066;2023-05-23T01:53:01;96081.75;;;20.50;54.09
21821;BME280;11073;48.586;12.066;2023-05-23T01:55:51;96100.13;;;20.49;54.18
21821;BME280;11073;48.586;12.066;2023-05-23T01:58:41;96093.66;;;20.45;53.91
21821;BME280;11073;48.586;12.066;2023-05-23T02:01:32;96086.28;;;20.41;54.12
21821;BME280;11073;48.586;12.066;2023-05-23T02:04:23;96097.59;;;20.39;54.43
21821;BME280;11073;48.586;12.066;2023-05-23T02:07:12;96092.44;;;20.37;54.59
21821;BME280;11073;48.586;12.066;2023-05-23T02:10:02;96096.09;;;20.33;54.34
21821;BME280;11073;48.586;12.066;2023-05-23T02:12:52;96093.97;;;20.30;54.57
21821;BME280;11073;48.586;12.066;2023-05-23T02:15:41;96098.13;;;20.27;54.75
21821;BME280;11073;48.586;12.066;2023-05-23T02:18:31;96101.00;;;20.22;55.15
21821;BME280;11073;48.586;12.066;2023-05-23T02:21:22;96108.53;;;20.17;55.19
21821;BME280;11073;48.586;12.066;2023-05-23T02:24:11;96105.09;;;20.11;55.47
21821;BME280;11073;48.586;12.066;2023-05-23T02:27:00;96104.59;;;20.09;55.22
21821;BME280;11073;48.586;12.066;2023-05-23T02:29:49;96094.19;;;20.06;55.40
21821;BME280;11073;48.586;12.066;2023-05-23T02:32:38;96098.06;;;20.05;55.45
21821;BME280;11073;48.586;12.066;2023-05-23T02:35:27;96092.56;;;20.05;56.03
21821;BME280;11073;48.586;12.066;2023-05-23T02:38:18;96094.50;;;20.04;56.15
21821;BME280;11073;48.586;12.066;2023-05-23T02:41:07;96100.31;;;20.03;55.83
21821;BME280;11073;48.586;12.066;2023-05-23T02:43:57;96094.09;;;19.97;55.85
21821;BME280;11073;48.586;12.066;2023-05-23T02:46:46;96095.31;;;19.91;55.91
21821;BME280;11073;48.586;12.066;2023-05-23T02:49:37;96099.19;;;19.90;56.10
21821;BME280;11073;48.586;12.066;2023-05-23T02:52:27;96105.22;;;19.92;56.46
21821;BME280;11073;48.586;12.066;2023-05-23T02:55:18;96102.47;;;19.92;56.84
21821;BME280;11073;48.586;12.066;2023-05-23T02:58:09;96098.28;;;19.95;56.74
21821;BME280;11073;48.586;12.066;2023-05-23T03:00:59;96104.09;;;19.93;56.68
21821;BME280;11073;48.586;12.066;2023-05-23T03:03:48;96104.91;;;19.94;56.88
21821;BME280;11073;48.586;12.066;2023-05-23T03:06:37;96106.63;;;19.90;56.65
21821;BME280;11073;48.586;12.066;2023-05-23T03:09:26;96106.63;;;19.90;56.85
21821;BME280;11073;48.586;12.066;2023-05-23T03:12:17;96105.81;;;19.89;57.16
21821;BME280;11073;48.586;12.066;2023-05-23T03:15:07;96104.81;;;19.85;57.23
21821;BME280;11073;48.586;12.066;2023-05-23T03:17:59;96098.91;;;19.78;56.99
21821;BME280;11073;48.586;12.066;2023-05-23T03:20:51;96093.53;;;19.73;57.49
21821;BME280;11073;48.586;12.066;2023-05-23T03:23:42;96094.94;;;19.70;57.48
21821;BME280;11073;48.586;12.066;2023-05-23T03:26:31;96088.22;;;19.63;57.51
21821;BME280;11073;48.586;12.066;2023-05-23T03:29:22;96072.16;;;19.56;57.71
21821;BME280;11073;48.586;12.066;2023-05-23T03:32:11;96089.88;;;19.64;57.71
21821;BME280;11073;48.586;12.066;2023-05-23T03:35:00;96090.97;;;19.63;57.99
21821;BME280;11073;48.586;12.066;2023-05-23T03:37:49;96088.03;;;19.59;57.96
21821;BME280;11073;48.586;12.066;2023-05-23T03:40:38;96097.66;;;19.56;58.06
21821;BME280;11073;48.586;12.066;2023-05-23T03:43:27;96091.63;;;19.54;58.20
21821;BME280;11073;48.586;12.066;2023-05-23T03:46:18;96093.69;;;19.49;58.06
21821;BME280;11073;48.586;12.066;2023-05-23T03:49:07;96094.78;;;19.34;58.35
21821;BME280;11073;48.586;12.066;2023-05-23T03:51:57;96100.06;;;19.31;58.53
21821;BME280;11073;48.586;12.066;2023-05-23T03:54:46;96093.13;;;19.19;58.52
21821;BME280;11073;48.586;12.066;2023-05-23T03:57:35;96087.81;;;19.09;58.81
21821;BME280;11073;48.586;12.066;2023-05-23T04:00:25;96109.25;;;19.07;59.07
21821;BME280;11073;48.586;12.066;2023-05-23T04:03:16;96099.56;;;18.96;59.27
21821;BME280;11073;48.586;12.066;2023-05-23T04:06:06;96119.78;;;19.00;59.54
21821;BME280;11073;48.586;12.066;2023-05-23T04:08:57;96125.88;;;18.97;59.51
21821;BME280;11073;48.586;12.066;2023-05-23T04:11:47;96120.38;;;18.97;59.71
21821;BME280;11073;48.586;12.066;2023-05-23T04:14:38;96109.41;;;18.97;59.91
21821;BME280;11073;48.586;12.066;2023-05-23T04:17:27;96125.34;;;18.95;59.87
21821;BME280;11073;48.586;12.066;2023-05-23T04:20:19;96117.75;;;18.92;60.02
21821;BME280;11073;48.586;12.066;2023-05-23T04:23:09;96125.16;;;18.91;60.14
21821;BME280;11073;48.586;12.066;2023-05-23T04:26:00;96121.69;;;18.86;60.37
21821;BME280;11073;48.586;12.066;2023-05-23T04:28:54;96087.50;;;18.59;60.32
21821;BME280;11073;48.586;12.066;2023-05-23T04:31:43;96131.03;;;18.85;60.34
21821;BME280;11073;48.586;12.066;2023-05-23T04:34:34;96133.75;;;18.85;60.59
21821;BME280;11073;48.586;12.066;2023-05-23T04:37:26;96128.47;;;18.88;60.55
21821;BME280;11073;48.586;12.066;2023-05-23T04:40:15;96131.47;;;18.92;60.52
21821;BME280;11073;48.586;12.066;2023-05-23T04:43:23;96130.63;;;18.91;60.67
21821;BME280;11073;48.586;12.066;2023-05-23T04:46:18;96132.16;;;18.97;60.70
21821;BME280;11073;48.586;12.066;2023-05-23T04:49:15;96142.75;;;19.04;60.57
21821;BME280;11073;48.586;12.066;2023-05-23T04:52:04;96145.50;;;19.04;60.80
21821;BME280;11073;48.586;12.066;2023-05-23T04:54:55;96135.66;;;19.03;60.55
21821;BME280;11073;48.586;12.066;2023-05-23T04:57:44;96112.31;;;18.87;60.70
21821;BME280;11073;48.586;12.066;2023-05-23T05:00:34;96144.59;;;19.09;60.62
21821;BME280;11073;48.586;12.066;2023-05-23T05:03:24;96147.84;;;19.11;60.65
21821;BME280;11073;48.586;12.066;2023-05-23T05:06:13;96141.56;;;19.10;61.09
21821;BME280;11073;48.586;12.066;2023-05-23T05:09:03;96123.13;;;18.97;61.25
21821;BME280;11073;48.586;12.066;2023-05-23T05:11:53;96113.75;;;18.84;60.95
21821;BME280;11073;48.586;12.066;2023-05-23T05:14:43;96156.91;;;19.11;61.28
21821;BME280;11073;48.586;12.066;2023-05-23T05:17:32;96164.56;;;19.14;61.72
21821;BME280;11073;48.586;12.066;2023-05-23T05:20:27;96174.22;;;19.25;61.75
21821;BME280;11073;48.586;12.066;2023-05-23T05:23:17;96160.06;;;19.18;61.79
21821;BME280;11073;48.586;12.066;2023-05-23T05:26:06;96177.59;;;19.22;61.76
21821;BME280;11073;48.586;12.066;2023-05-23T05:28:58;96129.41;;;18.97;62.17
21821;BME280;11073;48.586;12.066;2023-05-23T05:31:48;96164.31;;;19.11;62.39
21821;BME280;11073;48.586;12.066;2023-05-23T05:34:38;96169.97;;;19.19;62.35
21821;BME280;11073;48.586;12.066;2023-05-23T05:37:28;96174.34;;;19.20;62.45
21821;BME280;11073;48.586;12.066;2023-05-23T05:40:17;96161.31;;;19.12;62.71
21821;BME280;11073;48.586;12.066;2023-05-23T05:43:06;96174.53;;;19.24;62.81
21821;BME280;11073;48.586;12.066;2023-05-23T05:45:58;96188.75;;;19.26;62.84
21821;BME280;11073;48.586;12.066;2023-05-23T05:48:48;96183.56;;;19.24;62.78
21821;BME280;11073;48.586;12.066;2023-05-23T05:51:38;96178.91;;;19.25;63.28
21821;BME280;11073;48.586;12.066;2023-05-23T05:54:27;96187.25;;;19.34;63.51
21821;BME280;11073;48.586;12.066;2023-05-23T05:57:16;96188.81;;;19.40;63.29
21821;BME280;11073;48.586;12.066;2023-05-23T06:00:07;96187.47;;;19.37;63.29
21821;BME280;11073;48.586;12.066;2023-05-23T06:03:14;96195.91;;;19.41;63.43
21821;BME280;11073;48.586;12.066;2023-05-23T06:06:12;96193.47;;;19.39;63.22
21821;BME280;11073;48.586;12.066;2023-05-23T06:09:02;96195.41;;;19.39;63.61
21821;BME280;11073;48.586;12.066;2023-05-23T06:11:51;96193.84;;;19.33;63.63
21821;BME280;11073;48.586;12.066;2023-05-23T06:14:40;96199.06;;;19.34;63.78
21821;BME280;11073;48.586;12.066;2023-05-23T06:17:29;96203.22;;;19.32;63.60
21821;BME280;11073;48.586;12.066;2023-05-23T06:20:20;96204.25;;;19.36;64.06
21821;BME280;11073;48.586;12.066;2023-05-23T06:23:09;96186.97;;;19.35;63.85
21821;BME280;11073;48.586;12.066;2023-05-23T06:25:59;96202.25;;;19.55;63.54
21821;BME280;11073;48.586;12.066;2023-05-23T06:28:48;96209.84;;;19.63;63.81
21821;BME280;11073;48.586;12.066;2023-05-23T06:31:37;96210.78;;;19.72;63.78
21821;BME280;11073;48.586;12.066;2023-05-23T06:34:26;96209.97;;;19.72;63.74
21821;BME280;11073;48.586;12.066;2023-05-23T06:37:16;96213.88;;;19.85;63.46
21821;BME280;11073;48.586;12.066;2023-05-23T06:40:06;96211.41;;;19.97;63.06
21821;BME280;11073;48.586;12.066;2023-05-23T06:42:55;96210.28;;;19.98;62.79
21821;BME280;11073;48.586;12.066;2023-05-23T06:45:58;96221.31;;;20.11;62.65
21821;BME280;11073;48.586;12.066;2023-05-23T06:48:48;96226.88;;;20.20;62.53
21821;BME280;11073;48.586;12.066;2023-05-23T06:51:55;96227.22;;;20.32;62.28
21821;BME280;11073;48.586;12.066;2023-05-23T06:54:45;96228.63;;;20.44;61.60
21821;BME280;11073;48.586;12.066;2023-05-23T06:57:34;96231.81;;;20.51;61.70
21821;BME280;11073;48.586;12.066;2023-05-23T07:00:23;96227.13;;;20.51;61.41
21821;BME280;11073;48.586;12.066;2023-05-23T07:03:45;96244.75;;;20.50;61.20
21821;BME280;11073;48.586;12.066;2023-05-23T07:06:34;96245.56;;;20.51;61.15
21821;BME280;11073;48.586;12.066;2023-05-23T07:09:25;96244.31;;;20.57;60.79
21821;BME280;11073;48.586;12.066;2023-05-23T07:12:26;96225.63;;;20.45;60.61
21821;BME280;11073;48.586;12.066;2023-05-23T07:15:16;96251.47;;;20.72;60.00
21821;BME280;11073;48.586;12.066;2023-05-23T07:18:14;96241.94;;;20.78;60.14
21821;BME280;11073;48.586;12.066;2023-05-23T07:21:03;96246.31;;;20.92;59.96
21821;BME280;11073;48.586;12.066;2023-05-23T07:23:53;96245.06;;;20.99;59.82
21821;BME280;11073;48.586;12.066;2023-05-23T07:26:42;96236.06;;;21.07;59.17
21821;BME280;11073;48.586;12.066;2023-05-23T07:29:33;96204.94;;;20.98;59.06
21821;BME280;11073;48.586;12.066;2023-05-23T07:32:23;96234.78;;;21.27;59.21
21821;BME280;11073;48.586;12.066;2023-05-23T07:35:12;96240.91;;;21.37;59.09
21821;BME280;11073;48.586;12.066;2023-05-23T07:38:03;96238.00;;;21.42;59.09
21821;BME280;11073;48.586;12.066;2023-05-23T07:40:52;96222.44;;;21.38;58.73
21821;BME280;11073;48.586;12.066;2023-05-23T07:43:59;96232.28;;;21.53;58.44
21821;BME280;11073;48.586;12.066;2023-05-23T07:46:49;96246.53;;;21.55;58.03
21821;BME280;11073;48.586;12.066;2023-05-23T07:49:39;96239.03;;;21.46;57.65
21821;BME280;11073;48.586;12.066;2023-05-23T07:52:29;96237.41;;;21.45;57.92
21821;BME280;11073;48.586;12.066;2023-05-23T07:55:21;96235.53;;;21.55;57.86
21821;BME280;11073;48.586;12.066;2023-05-23T07:58:13;96242.22;;;21.62;57.82
21821;BME280;11073;48.586;12.066;2023-05-23T08:01:02;96228.06;;;21.55;57.70
21821;BME280;11073;48.586;12.066;2023-05-23T08:04:28;96246.72;;;21.81;57.47
21821;BME280;11073;48.586;12.066;2023-05-23T08:07:21;96226.06;;;21.69;57.30
21821;BME280;11073;48.586;12.066;2023-05-23T08:10:15;96224.38;;;21.60;57.00
21821;BME280;11073;48.586;12.066;2023-05-23T08:13:05;96246.41;;;21.82;56.99
21821;BME280;11073;48.586;12.066;2023-05-23T08:16:00;96252.75;;;21.91;57.05
21821;BME280;11073;48.586;12.066;2023-05-23T08:18:50;96248.72;;;21.89;56.94
21821;BME280;11073;48.586;12.066;2023-05-23T08:21:41;96246.13;;;21.92;57.00
21821;BME280;11073;48.586;12.066;2023-05-23T08:24:31;96229.59;;;21.92;56.88
21821;BME280;11073;48.586;12.066;2023-05-23T08:27:22;96259.88;;;22.15;56.68
21821;BME280;11073;48.586;12.066;2023-05-23T08:30:16;96256.34;;;22.23;56.52
21821;BME280;11073;48.586;12.066;2023-05-23T08:33:06;96251.19;;;22.30;56.30
21821;BME280;11073;48.586;12.066;2023-05-23T08:35:57;96238.88;;;22.27;56.32
21821;BME280;11073;48.586;12.066;2023-05-23T08:38:49;96262.34;;;22.65;56.59
21821;BME280;11073;48.586;12.066;2023-05-23T08:41:45;96252.00;;;22.70;55.94
21821;BME280;11073;48.586;12.066;2023-05-23T08:44:34;96237.31;;;22.52;56.04
21821;BME280;11073;48.586;12.066;2023-05-23T08:47:23;96276.78;;;22.62;55.81
21821;BME280;11073;48.586;12.066;2023-05-23T08:50:19;96273.16;;;22.52;55.62
21821;BME280;11073;48.586;12.066;2023-05-23T08:53:14;96282.44;;;22.56;55.70
21821;BME280;11073;48.586;12.066;2023-05-23T08:56:12;96244.59;;;22.40;55.47
21821;BME280;11073;48.586;12.066;2023-05-23T08:59:04;96288.53;;;22.84;55.48
21821;BME280;11073;48.586;12.066;2023-05-23T09:01:54;96288.44;;;22.98;55.05
21821;BME280;11073;48.586;12.066;2023-05-23T09:04:44;96286.34;;;23.04;54.64
21821;BME280;11073;48.586;12.066;2023-05-23T09:07:38;96294.16;;;23.10;54.14
21821;BME280;11073;48.586;12.066;2023-05-23T09:10:27;96284.06;;;23.15;54.32
21821;BME280;11073;48.586;12.066;2023-05-23T09:13:20;96281.50;;;23.18;53.90
21821;BME280;11073;48.586;12.066;2023-05-23T09:16:15;96299.22;;;23.26;53.76
21821;BME280;11073;48.586;12.066;2023-05-23T09:19:14;96300.00;;;23.18;53.84
21821;BME280;11073;48.586;12.066;2023-05-23T09:22:23;96302.44;;;23.10;53.44
21821;BME280;11073;48.586;12.066;2023-05-23T09:25:20;96301.63;;;23.19;53.80
21821;BME280;11073;48.586;12.066;2023-05-23T09:28:09;96300.31;;;23.16;53.63
21821;BME280;11073;48.586;12.066;2023-05-23T09:31:00;96281.78;;;22.99;53.44
21821;BME280;11073;48.586;12.066;2023-05-23T09:33:50;96304.34;;;23.01;53.23
21821;BME280;11073;48.586;12.066;2023-05-23T09:36:39;96300.50;;;23.11;53.18
21821;BME280;11073;48.586;12.066;2023-05-23T09:39:30;96278.56;;;23.06;53.33
21821;BME280;11073;48.586;12.066;2023-05-23T09:42:20;96296.78;;;23.33;53.22
21821;BME280;11073;48.586;12.066;2023-05-23T09:45:11;96289.63;;;23.41;52.94
21821;BME280;11073;48.586;12.066;2023-05-23T09:48:01;96309.59;;;23.46;52.46
21821;BME280;11073;48.586;12.066;2023-05-23T09:50:51;96318.91;;;23.76;52.10
21821;BME280;11073;48.586;12.066;2023-05-23T09:53:40;96308.13;;;24.09;51.48
21821;BME280;11073;48.586;12.066;2023-05-23T09:56:30;96307.16;;;24.14;51.18
21821;BME280;11073;48.586;12.066;2023-05-23T09:59:21;96300.47;;;24.15;50.75
21821;BME280;11073;48.586;12.066;2023-05-23T10:02:12;96302.44;;;23.97;51.02
21821;BME280;11073;48.586;12.066;2023-05-23T10:05:06;96305.69;;;24.08;51.13
21821;BME280;11073;48.586;12.066;2023-05-23T10:07:58;96313.81;;;24.21;50.83
21821;BME280;11073;48.586;12.066;2023-05-23T10:11:29;96298.63;;;24.45;50.80
21821;BME280;11073;48.586;12.066;2023-05-23T10:14:34;96289.66;;;24.48;50.62
21821;BME280;11073;48.586;12.066;2023-05-23T10:17:32;96293.22;;;24.57;50.40
21821;BME280;11073;48.586;12.066;2023-05-23T10:20:29;96293.06;;;24.92;50.07
21821;BME280;11073;48.586;12.066;2023-05-23T10:23:19;96302.47;;;25.50;49.70
21821;BME280;11073;48.586;12.066;2023-05-23T10:26:10;96291.25;;;25.88;48.96
21821;BME280;11073;48.586;12.066;2023-05-23T10:28:59;96292.88;;;26.22;48.65
21821;BME280;11073;48.586;12.066;2023-05-23T10:31:48;96293.75;;;26.47;47.83
21821;BME280;11073;48.586;12.066;2023-05-23T10:34:43;96284.97;;;26.45;47.14
21821;BME280;11073;48.586;12.066;2023-05-23T10:37:41;96281.78;;;25.89;46.35
21821;BME280;11073;48.586;12.066;2023-05-23T10:40:40;96281.88;;;25.93;46.72
21821;BME280;11073;48.586;12.066;2023-05-23T10:43:41;96285.81;;;25.92;46.24
21821;BME280;11073;48.586;12.066;2023-05-23T10:46:50;96276.22;;;25.89;46.04
21821;BME280;11073;48.586;12.066;2023-05-23T10:49:40;96277.69;;;26.07;45.77
21821;BME280;11073;48.586;12.066;2023-05-23T10:52:39;96277.13;;;25.81;45.76
21821;BME280;11073;48.586;12.066;2023-05-23T10:55:31;96274.53;;;25.55;45.86
21821;BME280;11073;48.586;12.066;2023-05-23T10:58:21;96275.28;;;25.64;46.15
21821;BME280;11073;48.586;12.066;2023-05-23T11:01:12;96262.81;;;25.91;45.91
21821;BME280;11073;48.586;12.066;2023-05-23T11:04:04;96275.97;;;25.61;45.61
21821;BME280;11073;48.586;12.066;2023-05-23T11:06:54;96269.88;;;25.26;45.72
21821;BME280;11073;48.586;12.066;2023-05-23T11:10:07;96281.16;;;25.83;45.85
21821;BME280;11073;48.586;12.066;2023-05-23T11:13:05;96267.56;;;26.36;45.47
21821;BME280;11073;48.586;12.066;2023-05-23T11:15:54;96267.16;;;26.71;45.22
21821;BME280;11073;48.586;12.066;2023-05-23T11:18:43;96260.09;;;26.49;44.54
21821;BME280;11073;48.586;12.066;2023-05-23T11:21:33;96271.25;;;26.28;44.62
21821;BME280;11073;48.586;12.066;2023-05-23T11:24:22;96266.50;;;26.28;44.21
21821;BME280;11073;48.586;12.066;2023-05-23T11:27:13;96267.81;;;25.98;44.06
21821;BME280;11073;48.586;12.066;2023-05-23T11:30:05;96255.97;;;25.76;44.25
21821;BME280;11073;48.586;12.066;2023-05-23T11:32:54;96255.47;;;25.95;44.43
21821;BME280;11073;48.586;12.066;2023-05-23T11:35:45;96269.75;;;25.43;44.84
21821;BME280;11073;48.586;12.066;2023-05-23T11:38:34;96280.56;;;25.57;45.51
21821;BME280;11073;48.586;12.066;2023-05-23T11:41:23;96273.31;;;26.19;45.49
21821;BME280;11073;48.586;12.066;2023-05-23T11:44:14;96278.97;;;26.67;44.69
21821;BME280;11073;48.586;12.066;2023-05-23T11:47:04;96267.41;;;27.02;44.11
21821;BME280;11073;48.586;12.066;2023-05-23T11:49:54;96271.78;;;27.15;43.16
21821;BME280;11073;48.586;12.066;2023-05-23T11:52:42;96267.28;;;26.74;42.77
21821;BME280;11073;48.586;12.066;2023-05-23T11:55:38;96273.75;;;26.21;42.95
21821;BME280;11073;48.586;12.066;2023-05-23T11:58:29;96282.72;;;25.93;43.42
21821;BME280;11073;48.586;12.066;2023-05-23T12:01:20;96277.03;;;25.69;43.68
21821;BME280;11073;48.586;12.066;2023-05-23T12:04:09;96278.25;;;25.59;43.69
21821;BME280;11073;48.586;12.066;2023-05-23T12:07:03;96276.91;;;25.65;43.69
21821;BME280;11073;48.586;12.066;2023-05-23T12:09:54;96276.78;;;25.41;44.03
21821;BME280;11073;48.586;12.066;2023-05-23T12:12:43;96282.34;;;25.11;44.27
21821;BME280;11073;48.586;12.066;2023-05-23T12:15:32;96283.47;;;25.40;44.34
21821;BME280;11073;48.586;12.066;2023-05-23T12:18:23;96280.09;;;26.09;43.39
21821;BME280;11073;48.586;12.066;2023-05-23T12:21:12;96287.19;;;26.19;42.62
21821;BME280;11073;48.586;12.066;2023-05-23T12:24:13;96276.88;;;26.52;42.38
21821;BME280;11073;48.586;12.066;2023-05-23T12:27:03;96287.31;;;26.22;41.95
21821;BME280;11073;48.586;12.066;2023-05-23T12:30:03;96286.97;;;26.81;41.64
21821;BME280;11073;48.586;12.066;2023-05-23T12:32:52;96283.69;;;27.40;40.92
21821;BME280;11073;48.586;12.066;2023-05-23T12:35:44;96284.56;;;27.69;40.55
21821;BME280;11073;48.586;12.066;2023-05-23T12:38:33;96258.16;;;27.51;39.68
21821;BME280;11073;48.586;12.066;2023-05-23T12:41:25;96289.97;;;27.65;39.67
21821;BME280;11073;48.586;12.066;2023-05-23T12:44:15;96284.91;;;27.55;39.49
21821;BME280;11073;48.586;12.066;2023-05-23T12:47:04;96294.53;;;27.98;39.23
21821;BME280;11073;48.586;12.066;2023-05-23T12:49:53;96299.13;;;28.34;38.61
21821;BME280;11073;48.586;12.066;2023-05-23T12:52:43;96294.50;;;28.70;38.39
21821;BME280;11073;48.586;12.066;2023-05-23T12:55:32;96302.38;;;28.68;37.93
21821;BME280;11073;48.586;12.066;2023-05-23T12:58:21;96305.72;;;28.73;37.27
21821;BME280;11073;48.586;12.066;2023-05-23T13:01:10;96304.00;;;28.84;37.06
21821;BME280;11073;48.586;12.066;2023-05-23T13:03:59;96311.94;;;28.98;36.66
21821;BME280;11073;48.586;12.066;2023-05-23T13:06:48;96313.16;;;28.85;36.66
21821;BME280;11073;48.586;12.066;2023-05-23T13:09:38;96291.72;;;28.54;36.31
21821;BME280;11073;48.586;12.066;2023-05-23T13:12:27;96308.47;;;28.89;36.51
21821;BME280;11073;48.586;12.066;2023-05-23T13:15:17;96304.84;;;29.01;35.87
21821;BME280;11073;48.586;12.066;2023-05-23T13:18:06;96299.66;;;29.34;36.28
21821;BME280;11073;48.586;12.066;2023-05-23T13:20:56;96301.47;;;29.62;35.97
21821;BME280;11073;48.586;12.066;2023-05-23T13:23:45;96289.09;;;29.59;34.79
21821;BME280;11073;48.586;12.066;2023-05-23T13:26:35;96291.31;;;29.34;34.49
21821;BME280;11073;48.586;12.066;2023-05-23T13:29:25;96287.78;;;29.37;35.35
21821;BME280;11073;48.586;12.066;2023-05-23T13:32:13;96285.94;;;29.45;34.89
21821;BME280;11073;48.586;12.066;2023-05-23T13:35:03;96293.56;;;29.64;35.07
21821;BME280;11073;48.586;12.066;2023-05-23T13:37:52;96300.19;;;29.75;34.55
21821;BME280;11073;48.586;12.066;2023-05-23T13:40:41;96276.75;;;29.60;34.50
21821;BME280;11073;48.586;12.066;2023-05-23T13:43:31;96276.34;;;29.78;34.33
21821;BME280;11073;48.586;12.066;2023-05-23T13:46:20;96278.00;;;29.82;34.53
21821;BME280;11073;48.586;12.066;2023-05-23T13:49:09;96278.16;;;29.89;34.63
21821;BME280;11073;48.586;12.066;2023-05-23T13:51:58;96280.13;;;29.89;34.42
21821;BME280;11073;48.586;12.066;2023-05-23T13:54:47;96273.69;;;29.85;34.06
21821;BME280;11073;48.586;12.066;2023-05-23T13:57:35;96279.63;;;29.83;34.26
21821;BME280;11073;48.586;12.066;2023-05-23T14:00:26;96287.84;;;29.96;34.58
21821;BME280;11073;48.586;12.066;2023-05-23T14:03:15;96277.06;;;29.94;34.26
21821;BME280;11073;48.586;12.066;2023-05-23T14:06:05;96281.53;;;29.99;33.87
21821;BME280;11073;48.586;12.066;2023-05-23T14:08:55;96289.31;;;29.35;33.78
21821;BME280;11073;48.586;12.066;2023-05-23T14:11:43;96276.72;;;29.41;34.75
21821;BME280;11073;48.586;12.066;2023-05-23T14:14:32;96279.41;;;29.73;34.76
21821;BME280;11073;48.586;12.066;2023-05-23T14:17:22;96276.53;;;29.88;34.64
21821;BME280;11073;48.586;12.066;2023-05-23T14:20:11;96276.03;;;29.83;34.10
21821;BME280;11073;48.586;12.066;2023-05-23T14:23:01;96280.44;;;30.03;34.11
21821;BME280;11073;48.586;12.066;2023-05-23T14:25:50;96282.25;;;29.57;33.84
21821;BME280;11073;48.586;12.066;2023-05-23T14:28:39;96283.34;;;29.01;33.49
21821;BME280;11073;48.586;12.066;2023-05-23T14:31:28;96276.50;;;29.15;33.95
21821;BME280;11073;48.586;12.066;2023-05-23T14:34:18;96283.81;;;29.38;33.88
21821;BME280;11073;48.586;12.066;2023-05-23T14:37:08;96294.22;;;29.57;33.78
21821;BME280;11073;48.586;12.066;2023-05-23T14:39:56;96283.94;;;29.26;33.48
21821;BME280;11073;48.586;12.066;2023-05-23T14:42:46;96286.75;;;29.10;33.47
21821;BME280;11073;48.586;12.066;2023-05-23T14:45:35;96295.25;;;29.33;33.51
21821;BME280;11073;48.586;12.066;2023-05-23T14:48:24;96300.00;;;29.33;33.09
21821;BME280;11073;48.586;12.066;2023-05-23T14:51:14;96291.69;;;29.17;33.06
21821;BME280;11073;48.586;12.066;2023-05-23T14:54:24;96309.50;;;29.13;33.57
21821;BME280;11073;48.586;12.066;2023-05-23T14:57:13;96303.19;;;29.16;33.16